Terminal Aerodrome Forecast
Issued by NWS

Home | Current Version | Previous Version | Text Only | Print | Product List | Glossary On
Versions: 1 2 3 4 5 6 7 8 9 10 11 12 13 14 15 16 17 18
000
FTUS42 KRAH 241308 AAA
TAFRWI
TAF AMD
KRWI 241308Z 2413/2512 21008KT P6SM VCSH SCT007 BKN150
      TEMPO 2413/2415 2SM -TSRA BKN012CB
     FM241500 22010KT P6SM VCSH BKN035
     FM242300 20003KT P6SM SCT035 BKN250=

USA.gov is the U.S. government's official web portal to all federal, state and local government web resources and services.